Time;durP1;ratioP1;P1;durP2;ratioP2;P2;SDS_P1;SDS_P2;PMS_P1;PMS_P2;Temp;Humidity;BMP_temperature;BMP_pressure;BME280_temperature;BME280_humidity;BME280_pressure;Samples;Min_cycle;Max_cycle;Signal;HPM_P1;HPM_P2
2023/12/01 00:01:19;;;;;;;82.97;37.93;;;2.50;76.70;;;;;;4832796;29;20515;-93
2023/12/01 00:03:48;;;;;;;83.30;39.10;;;2.50;76.90;;;;;;4833572;29;20078;-93
2023/12/01 00:06:15;;;;;;;89.00;37.67;;;2.40;77.00;;;;;;4832881;29;20050;-93
2023/12/01 00:08:42;;;;;;;83.72;38.25;;;2.40;77.20;;;;;;4833367;29;20073;-93
2023/12/01 00:11:09;;;;;;;82.13;37.33;;;2.40;77.30;;;;;;4832553;29;20061;-93
2023/12/01 00:13:36;;;;;;;84.40;36.13;;;2.40;77.30;;;;;;4833520;29;20049;-92
2023/12/01 00:16:04;;;;;;;89.43;38.53;;;2.40;77.30;;;;;;4832917;29;20045;-93
2023/12/01 00:18:31;;;;;;;84.97;35.92;;;2.40;77.50;;;;;;4832896;29;20053;-93
2023/12/01 00:20:58;;;;;;;79.90;38.35;;;2.50;77.30;;;;;;4832950;29;20136;-94
2023/12/01 00:23:25;;;;;;;93.22;37.75;;;2.50;77.30;;;;;;4833132;29;20465;-93
2023/12/01 00:25:52;;;;;;;83.40;35.37;;;2.60;77.20;;;;;;4832730;29;20049;-93
2023/12/01 00:28:19;;;;;;;81.15;37.63;;;2.60;77.10;;;;;;4833008;29;20053;-93
2023/12/01 00:30:46;;;;;;;78.32;37.83;;;2.60;77.00;;;;;;4848476;29;20061;-93
2023/12/01 00:33:14;;;;;;;86.05;36.30;;;2.60;77.00;;;;;;4848227;29;20061;-93
2023/12/01 00:35:41;;;;;;;83.50;35.53;;;2.50;77.10;;;;;;4847428;29;20046;-92
2023/12/01 00:38:08;;;;;;;76.53;36.13;;;2.50;77.30;;;;;;4847445;29;20085;-93
2023/12/01 00:40:36;;;;;;;83.53;37.05;;;2.40;77.60;;;;;;4847552;29;20132;-93
2023/12/01 00:43:03;;;;;;;74.72;36.28;;;2.30;78.10;;;;;;4847411;29;20069;-94
2023/12/01 00:45:30;;;;;;;76.50;34.17;;;2.20;78.50;;;;;;4847441;29;20589;-94
2023/12/01 00:47:57;;;;;;;78.32;34.58;;;2.20;78.60;;;;;;4847475;29;20064;-94
2023/12/01 00:50:24;;;;;;;77.40;32.30;;;2.30;78.60;;;;;;4847497;29;20053;-94
2023/12/01 00:52:53;;;;;;;73.05;33.10;;;2.40;78.40;;;;;;4847589;29;20049;-94
2023/12/01 00:55:21;;;;;;;68.20;30.70;;;2.40;78.10;;;;;;4847338;29;20056;-94
2023/12/01 00:57:53;;;;;;;64.35;29.45;;;2.20;78.40;;;;;;4847400;29;20144;-95
2023/12/01 01:00:22;;;;;;;69.97;31.55;;;2.10;78.60;;;;;;4847405;29;20049;-94
2023/12/01 01:02:50;;;;;;;64.60;30.53;;;2.00;79.00;;;;;;4847200;29;20058;-93
2023/12/01 01:05:17;;;;;;;64.13;29.55;;;2.00;79.20;;;;;;4847643;29;20487;-93
2023/12/01 01:07:44;;;;;;;52.85;25.90;;;1.90;79.40;;;;;;4847149;29;20057;-93
2023/12/01 01:10:11;;;;;;;47.88;22.75;;;1.80;79.70;;;;;;4847472;29;20049;-94
2023/12/01 01:12:38;;;;;;;50.30;24.00;;;1.80;80.00;;;;;;4847172;29;20144;-94
2023/12/01 01:15:06;;;;;;;43.67;20.63;;;1.70;80.20;;;;;;4847477;29;20060;-93
2023/12/01 01:17:33;;;;;;;46.55;21.90;;;1.70;80.20;;;;;;4846948;29;20046;-93
2023/12/01 01:20:01;;;;;;;46.17;22.85;;;1.80;80.20;;;;;;4847145;29;20057;-93
2023/12/01 01:22:29;;;;;;;43.53;19.85;;;1.80;80.10;;;;;;4847709;29;20056;-94
2023/12/01 01:24:56;;;;;;;44.15;22.30;;;1.80;80.10;;;;;;4847606;29;20140;-93
2023/12/01 01:27:23;;;;;;;44.10;22.83;;;1.80;80.20;;;;;;4847479;29;20073;-94
2023/12/01 01:29:51;;;;;;;51.72;23.15;;;1.80;80.20;;;;;;4847666;29;20552;-93
2023/12/01 01:32:18;;;;;;;53.78;23.52;;;1.70;80.30;;;;;;4847323;29;20110;-93
2023/12/01 01:34:45;;;;;;;47.50;20.98;;;1.60;80.50;;;;;;4847515;29;20053;-93
2023/12/01 01:37:12;;;;;;;54.83;23.38;;;1.60;80.70;;;;;;4847040;29;20061;-93
2023/12/01 01:39:39;;;;;;;50.13;22.63;;;1.50;80.90;;;;;;4847132;29;20497;-93
2023/12/01 01:42:07;;;;;;;52.58;23.30;;;1.50;81.00;;;;;;4846297;29;20056;-93
2023/12/01 01:44:35;;;;;;;42.53;21.45;;;1.50;81.10;;;;;;4846792;29;20144;-93
2023/12/01 01:47:04;;;;;;;48.63;22.60;;;1.50;80.90;;;;;;4846580;29;20444;-93
2023/12/01 01:49:31;;;;;;;46.13;21.75;;;1.50;80.90;;;;;;4846911;29;20059;-93
2023/12/01 01:51:59;;;;;;;46.17;20.83;;;1.60;80.70;;;;;;4846446;29;20530;-93
2023/12/01 01:54:27;;;;;;;41.60;20.77;;;1.70;80.50;;;;;;4846346;29;20049;-94
2023/12/01 01:56:57;;;;;;;44.75;21.13;;;1.80;80.10;;;;;;4846313;29;20050;-93
2023/12/01 01:59:24;;;;;;;41.17;20.50;;;1.90;79.80;;;;;;4846567;29;20050;-93
2023/12/01 02:01:51;;;;;;;41.67;20.42;;;1.90;79.40;;;;;;4847037;29;20052;-93
2023/12/01 02:04:19;;;;;;;40.43;18.77;;;2.00;79.40;;;;;;4847033;29;20522;-93
2023/12/01 02:06:46;;;;;;;42.10;19.42;;;2.10;79.20;;;;;;4846609;29;20049;-94
2023/12/01 02:09:14;;;;;;;39.08;16.98;;;2.10;78.90;;;;;;4847046;29;20054;-93
2023/12/01 02:11:42;;;;;;;40.78;19.92;;;2.20;78.60;;;;;;4846496;29;20512;-93
2023/12/01 02:14:09;;;;;;;39.20;19.50;;;2.20;78.20;;;;;;4846505;29;20057;-93
2023/12/01 02:16:45;;;;;;;36.20;17.07;;;2.30;78.10;;;;;;4846476;29;20057;-93
2023/12/01 02:19:13;;;;;;;40.40;18.63;;;2.20;78.00;;;;;;4846700;29;20141;-93
2023/12/01 02:21:46;;;;;;;45.78;22.70;;;2.10;78.30;;;;;;4846565;29;20049;-93
2023/12/01 02:24:13;;;;;;;52.28;25.55;;;2.10;78.30;;;;;;4845807;29;20042;-92
2023/12/01 02:26:41;;;;;;;57.20;26.13;;;2.10;78.30;;;;;;4845913;29;20484;-93
2023/12/01 02:29:08;;;;;;;58.37;28.60;;;2.00;78.20;;;;;;4845551;29;20058;-93
2023/12/01 02:31:35;;;;;;;63.65;30.27;;;2.00;78.70;;;;;;4846185;29;20053;-93
2023/12/01 02:34:03;;;;;;;66.72;30.15;;;2.10;78.60;;;;;;4845622;29;20053;-94
2023/12/01 02:36:31;;;;;;;61.97;29.42;;;2.10;78.60;;;;;;4839351;29;20469;-93
2023/12/01 02:38:58;;;;;;;71.35;31.38;;;2.20;78.40;;;;;;4830632;29;20065;-93
2023/12/01 02:41:25;;;;;;;70.67;33.47;;;2.20;78.20;;;;;;4830353;29;20045;-93
2023/12/01 02:43:54;;;;;;;74.30;35.25;;;2.30;77.90;;;;;;4845910;29;20137;-93
2023/12/01 02:46:22;;;;;;;83.78;39.20;;;2.30;77.80;;;;;;4845658;29;20046;-93
2023/12/01 02:48:51;;;;;;;73.20;34.60;;;2.40;77.50;;;;;;4845971;29;20064;-93
2023/12/01 02:51:18;;;;;;;76.68;33.05;;;2.40;77.40;;;;;;4845626;29;20049;-93
2023/12/01 02:53:45;;;;;;;89.57;38.23;;;2.40;77.10;;;;;;4838021;29;20056;-94
2023/12/01 02:56:12;;;;;;;88.20;38.55;;;2.20;77.30;;;;;;4812155;29;20413;-93
2023/12/01 02:58:39;;;;;;;86.50;38.33;;;2.10;77.60;;;;;;4812139;29;20128;-93
2023/12/01 03:01:06;;;;;;;101.75;43.03;;;2.00;77.80;;;;;;4812170;29;20050;-93
2023/12/01 03:03:34;;;;;;;113.63;48.78;;;1.90;78.00;;;;;;4815179;29;20050;-93
2023/12/01 03:06:01;;;;;;;109.80;48.00;;;1.70;78.70;;;;;;4833965;29;20102;-93
2023/12/01 03:08:28;;;;;;;103.18;46.38;;;1.60;79.10;;;;;;4849038;29;20060;-93
2023/12/01 03:10:56;;;;;;;114.68;46.85;;;1.40;79.60;;;;;;4833675;29;20222;-93
2023/12/01 03:13:23;;;;;;;108.43;43.58;;;1.40;80.00;;;;;;4833632;29;20057;-93
2023/12/01 03:15:50;;;;;;;107.53;46.72;;;1.40;80.40;;;;;;4845411;29;20056;-93
2023/12/01 03:18:20;;;;;;;107.23;43.40;;;1.40;80.40;;;;;;4834247;29;20045;-93
2023/12/01 03:20:50;;;;;;;103.78;42.55;;;1.40;80.40;;;;;;4839066;29;20136;-93
2023/12/01 03:23:17;;;;;;;106.97;44.90;;;1.50;80.40;;;;;;4833628;29;20180;-93
2023/12/01 03:25:44;;;;;;;103.80;45.20;;;1.50;80.40;;;;;;4834451;29;20053;-93
2023/12/01 03:28:11;;;;;;;110.53;46.17;;;1.50;80.40;;;;;;4833948;29;20053;-93
2023/12/01 03:30:38;;;;;;;107.83;43.20;;;1.50;80.30;;;;;;4833829;29;20053;-94
2023/12/01 03:33:06;;;;;;;119.30;47.00;;;1.40;80.30;;;;;;4833745;29;20050;-93
2023/12/01 03:35:33;;;;;;;105.55;44.45;;;1.40;80.60;;;;;;4833705;29;20512;-94
2023/12/01 03:38:00;;;;;;;117.65;47.35;;;1.20;80.90;;;;;;4834072;29;20454;-93
2023/12/01 03:40:28;;;;;;;131.75;50.17;;;1.20;81.20;;;;;;4835223;29;20500;-93
2023/12/01 03:42:55;;;;;;;127.63;48.50;;;1.20;81.10;;;;;;4834155;29;20473;-94
2023/12/01 03:45:23;;;;;;;126.78;49.28;;;1.20;81.20;;;;;;4834164;29;20049;-93
2023/12/01 03:47:51;;;;;;;142.77;52.30;;;1.10;81.30;;;;;;4833888;29;20049;-93
2023/12/01 03:50:19;;;;;;;146.63;53.92;;;1.10;81.30;;;;;;4833995;29;20077;-92
2023/12/01 03:52:49;;;;;;;153.13;55.33;;;1.00;81.50;;;;;;4833241;29;20060;-93
2023/12/01 03:55:16;;;;;;;158.00;55.00;;;1.00;81.60;;;;;;4833675;29;20089;-95
2023/12/01 03:57:44;;;;;;;159.25;56.85;;;0.90;81.80;;;;;;4815087;29;20550;-93
2023/12/01 04:00:16;;;;;;;147.90;53.85;;;0.90;81.70;;;;;;4815122;29;20099;-94
2023/12/01 04:02:46;;;;;;;149.25;48.63;;;1.00;81.90;;;;;;4814977;29;20050;-94
2023/12/01 04:05:18;;;;;;;151.43;52.53;;;1.10;81.60;;;;;;4814573;29;20132;-93
2023/12/01 04:07:50;;;;;;;152.10;52.13;;;1.30;81.20;;;;;;4815708;29;20141;-93
2023/12/01 04:10:21;;;;;;;156.40;53.90;;;1.40;80.90;;;;;;4814989;29;20492;-93
2023/12/01 04:12:48;;;;;;;133.98;49.08;;;1.40;80.50;;;;;;4814268;29;20141;-93
2023/12/01 04:15:18;;;;;;;144.05;52.97;;;1.40;80.40;;;;;;4814735;29;20046;-93
2023/12/01 04:17:46;;;;;;;155.70;54.15;;;1.40;80.40;;;;;;4814421;29;20050;-94
2023/12/01 04:20:22;;;;;;;140.70;50.57;;;1.40;80.50;;;;;;4814624;29;20042;-94
2023/12/01 04:22:52;;;;;;;147.75;51.35;;;1.40;80.40;;;;;;4814639;29;20535;-92
2023/12/01 04:25:19;;;;;;;155.82;53.83;;;1.50;80.10;;;;;;4815616;29;20046;-95
2023/12/01 04:27:54;;;;;;;153.00;52.90;;;1.50;79.90;;;;;;4816469;29;20049;-95
2023/12/01 04:30:23;;;;;;;137.23;52.10;;;1.60;79.90;;;;;;4815639;29;20057;-96
2023/12/01 04:32:55;;;;;;;135.03;50.13;;;1.60;79.70;;;;;;4815701;29;20079;-95
2023/12/01 04:35:27;;;;;;;147.48;50.92;;;1.60;79.80;;;;;;4815317;29;20050;-95
2023/12/01 04:37:59;;;;;;;143.05;51.80;;;1.60;79.90;;;;;;4827882;29;20054;-94
2023/12/01 04:40:27;;;;;;;135.98;50.72;;;1.70;79.90;;;;;;4840615;29;20133;-95
2023/12/01 04:42:57;;;;;;;139.07;51.20;;;1.70;79.50;;;;;;4846353;29;20101;-93
2023/12/01 04:45:26;;;;;;;132.63;49.87;;;1.70;79.60;;;;;;4848410;29;20144;-94
2023/12/01 04:47:55;;;;;;;156.13;51.30;;;1.60;79.50;;;;;;4846041;29;20412;-96
2023/12/01 04:50:26;;;;;;;144.60;48.15;;;1.60;79.70;;;;;;4847523;29;20050;-96
2023/12/01 04:52:54;;;;;;;147.13;48.63;;;1.70;79.70;;;;;;4847939;29;20045;-96
2023/12/01 04:55:26;;;;;;;128.95;46.45;;;1.70;79.70;;;;;;4847807;29;20057;-96
2023/12/01 04:57:55;;;;;;;141.57;48.13;;;1.60;79.70;;;;;;4847600;29;20140;-96
2023/12/01 05:00:25;;;;;;;137.70;47.33;;;1.60;79.80;;;;;;4847776;29;20142;-96
2023/12/01 05:02:58;;;;;;;131.57;45.33;;;1.70;79.80;;;;;;4847717;29;20061;-96
2023/12/01 05:05:29;;;;;;;132.95;46.28;;;1.80;79.60;;;;;;4848283;29;20055;-96
2023/12/01 05:07:58;;;;;;;127.45;43.22;;;1.80;79.40;;;;;;4847960;29;20045;-96
2023/12/01 05:10:28;;;;;;;122.10;44.20;;;1.90;79.30;;;;;;4847721;29;20423;-96
2023/12/01 05:13:00;;;;;;;131.88;46.13;;;1.90;79.00;;;;;;4847817;29;20057;-96
2023/12/01 05:15:30;;;;;;;132.88;45.03;;;2.00;78.80;;;;;;4847927;29;20054;-96
2023/12/01 05:18:11;;;;;;;118.45;43.88;;;1.90;78.60;;;;;;4847189;29;20060;-96
2023/12/01 05:20:39;;;;;;;125.13;46.72;;;1.90;78.70;;;;;;4847251;29;20046;-96
2023/12/01 05:23:11;;;;;;;125.00;46.30;;;2.00;78.60;;;;;;4847159;29;20045;-96
2023/12/01 05:25:43;;;;;;;123.07;44.85;;;1.90;78.60;;;;;;4846470;29;20106;-96
2023/12/01 05:28:12;;;;;;;125.75;43.42;;;1.90;78.90;;;;;;4847161;29;20090;-96
2023/12/01 05:30:41;;;;;;;120.10;43.92;;;1.90;78.90;;;;;;4847108;29;20531;-96
2023/12/01 05:33:09;;;;;;;117.93;41.70;;;1.90;78.60;;;;;;4847459;29;20054;-96
2023/12/01 05:35:37;;;;;;;120.23;41.97;;;1.90;78.80;;;;;;4847364;29;20485;-96
2023/12/01 05:38:05;;;;;;;119.35;40.53;;;1.90;78.70;;;;;;4847448;29;20057;-96
2023/12/01 05:40:37;;;;;;;123.97;41.40;;;1.90;78.80;;;;;;4847200;29;20056;-96
2023/12/01 05:43:06;;;;;;;109.93;40.63;;;2.00;78.80;;;;;;4847661;29;20052;-96
2023/12/01 05:45:37;;;;;;;107.32;39.53;;;2.00;78.90;;;;;;4847521;29;20049;-96
2023/12/01 05:48:08;;;;;;;114.20;41.97;;;2.00;78.80;;;;;;4846731;29;20119;-96
2023/12/01 05:50:37;;;;;;;112.53;40.85;;;2.10;78.50;;;;;;4846891;29;20077;-96
2023/12/01 05:53:10;;;;;;;118.85;42.00;;;2.20;78.30;;;;;;4846520;29;20576;-96
2023/12/01 05:55:38;;;;;;;122.10;42.60;;;2.10;78.10;;;;;;4846631;29;20061;-96
2023/12/01 05:58:10;;;;;;;112.38;40.30;;;2.10;78.10;;;;;;4846938;29;20053;-96
2023/12/01 06:00:39;;;;;;;112.03;39.90;;;2.10;78.20;;;;;;4847367;29;20568;-96
2023/12/01 06:03:08;;;;;;;128.35;44.33;;;2.10;78.10;;;;;;4847060;29;20046;-96
2023/12/01 06:05:36;;;;;;;121.47;40.55;;;2.10;78.00;;;;;;4847367;29;20492;-96
2023/12/01 06:08:08;;;;;;;114.78;40.60;;;2.10;78.20;;;;;;4848983;29;20049;-96
2023/12/01 06:10:36;;;;;;;118.25;42.08;;;2.10;78.20;;;;;;4847454;29;20053;-96
2023/12/01 06:13:04;;;;;;;123.00;40.53;;;2.20;78.10;;;;;;4847566;29;20140;-96
2023/12/01 06:15:32;;;;;;;125.53;41.00;;;2.20;78.00;;;;;;4847208;29;20049;-96
2023/12/01 06:18:08;;;;;;;115.38;42.30;;;2.20;77.80;;;;;;4846642;29;20148;-96
2023/12/01 06:20:37;;;;;;;121.07;42.50;;;2.30;77.70;;;;;;4847390;29;20071;-96
2023/12/01 06:23:07;;;;;;;128.25;44.28;;;2.30;77.60;;;;;;4847212;29;20069;-96
2023/12/01 06:25:37;;;;;;;130.10;45.37;;;2.30;77.50;;;;;;4846873;29;20045;-96
2023/12/01 06:28:05;;;;;;;123.55;44.08;;;2.20;77.50;;;;;;4847218;29;20057;-96
2023/12/01 06:30:34;;;;;;;123.00;44.40;;;2.20;77.60;;;;;;4846808;29;20698;-96
2023/12/01 06:33:07;;;;;;;124.63;44.00;;;2.10;77.60;;;;;;4847678;29;20083;-96
2023/12/01 06:35:35;;;;;;;118.53;43.95;;;2.00;77.80;;;;;;4852635;29;20061;-96
2023/12/01 06:38:04;;;;;;;121.93;44.53;;;2.00;78.00;;;;;;4853682;29;20054;-96
2023/12/01 06:40:33;;;;;;;115.50;41.08;;;2.00;78.30;;;;;;4853270;29;20046;-96
2023/12/01 06:43:11;;;;;;;124.63;42.75;;;2.00;78.30;;;;;;4853194;29;20394;-94
2023/12/01 06:45:41;;;;;;;109.72;40.35;;;2.10;78.20;;;;;;4853539;29;20105;-95
2023/12/01 06:48:10;;;;;;;118.07;42.22;;;2.20;78.20;;;;;;4852948;29;20056;-95
2023/12/01 06:50:37;;;;;;;120.37;44.40;;;2.20;77.90;;;;;;4853394;29;20061;-95
2023/12/01 06:53:06;;;;;;;115.28;42.45;;;2.20;77.80;;;;;;4852749;29;20505;-95
2023/12/01 06:55:34;;;;;;;111.75;42.70;;;2.10;78.00;;;;;;4853720;29;20508;-95
2023/12/01 06:58:02;;;;;;;106.95;38.30;;;2.20;78.00;;;;;;4853142;29;20049;-95
2023/12/01 07:00:29;;;;;;;110.82;39.53;;;2.10;77.90;;;;;;4853398;29;20082;-95
2023/12/01 07:03:01;;;;;;;108.83;42.77;;;2.20;77.80;;;;;;4853705;29;20149;-96
2023/12/01 07:05:33;;;;;;;109.07;42.75;;;2.20;77.90;;;;;;4854431;29;20057;-95
2023/12/01 07:08:01;;;;;;;112.25;42.90;;;2.20;77.90;;;;;;4854095;29;20512;-95
2023/12/01 07:10:34;;;;;;;115.30;44.60;;;2.30;77.80;;;;;;4854382;29;20057;-95
2023/12/01 07:13:03;;;;;;;112.93;42.28;;;2.30;77.50;;;;;;4853164;29;20412;-95
2023/12/01 07:15:31;;;;;;;112.57;42.67;;;2.30;77.70;;;;;;4853849;29;20049;-95
2023/12/01 07:17:58;;;;;;;116.95;42.53;;;2.30;77.80;;;;;;4853186;29;20092;-95
2023/12/01 07:20:26;;;;;;;112.13;40.72;;;2.30;77.80;;;;;;4853329;29;20041;-95
2023/12/01 07:22:56;;;;;;;117.47;42.42;;;2.30;77.90;;;;;;4853522;29;20046;-95
2023/12/01 07:25:23;;;;;;;103.50;40.80;;;2.40;77.90;;;;;;4854209;29;20412;-96
2023/12/01 07:27:56;;;;;;;110.27;41.87;;;2.40;77.90;;;;;;4854312;29;20049;-95
2023/12/01 07:30:24;;;;;;;114.55;42.88;;;2.50;77.80;;;;;;4853821;29;20531;-95
2023/12/01 07:32:52;;;;;;;101.07;40.15;;;2.50;77.80;;;;;;4853236;29;20527;-95
2023/12/01 07:35:20;;;;;;;117.85;41.85;;;2.40;77.70;;;;;;4852605;29;20571;-96
2023/12/01 07:37:51;;;;;;;109.63;41.55;;;2.40;77.80;;;;;;4853219;29;20050;-96
2023/12/01 07:40:19;;;;;;;109.90;40.13;;;2.30;78.00;;;;;;4853689;29;20053;-95
2023/12/01 07:42:57;;;;;;;114.15;39.70;;;2.30;78.20;;;;;;4853472;29;20049;-95
2023/12/01 07:45:25;;;;;;;108.93;39.03;;;2.30;78.30;;;;;;4853511;29;20041;-96
2023/12/01 07:47:57;;;;;;;100.60;37.88;;;2.20;78.40;;;;;;4853150;29;20057;-95
2023/12/01 07:50:25;;;;;;;100.00;38.40;;;2.30;78.60;;;;;;4853061;29;20067;-95
2023/12/01 07:52:55;;;;;;;96.07;36.13;;;2.30;78.50;;;;;;4852141;29;20058;-96
2023/12/01 07:55:23;;;;;;;102.13;40.15;;;2.40;78.30;;;;;;4851412;29;20522;-95
2023/12/01 07:57:51;;;;;;;90.22;36.45;;;2.50;78.10;;;;;;4850244;29;20049;-96
2023/12/01 08:00:19;;;;;;;92.97;35.65;;;2.50;78.10;;;;;;4850322;29;20049;-96
2023/12/01 08:02:54;;;;;;;96.15;36.83;;;2.50;77.80;;;;;;4849894;29;20153;-96
2023/12/01 08:05:23;;;;;;;107.03;38.13;;;2.50;77.70;;;;;;4849881;29;20045;-95
2023/12/01 08:07:53;;;;;;;100.53;37.53;;;2.60;77.80;;;;;;4850371;29;20556;-95
2023/12/01 08:10:24;;;;;;;99.75;38.10;;;2.60;77.70;;;;;;4850588;29;20058;-95
2023/12/01 08:12:56;;;;;;;86.82;36.00;;;2.70;77.40;;;;;;4850676;29;20049;-95
2023/12/01 08:15:26;;;;;;;92.65;36.95;;;2.80;77.30;;;;;;4849976;29;20084;-95
2023/12/01 08:17:56;;;;;;;95.17;37.33;;;2.90;77.10;;;;;;4850002;29;20188;-96
2023/12/01 08:20:29;;;;;;;90.57;35.03;;;3.00;76.70;;;;;;4849648;29;20041;-95
2023/12/01 08:22:58;;;;;;;93.95;36.72;;;3.00;76.40;;;;;;4850196;29;20566;-95
2023/12/01 08:25:26;;;;;;;92.07;35.95;;;3.00;76.20;;;;;;4849989;29;20045;-95
2023/12/01 08:27:54;;;;;;;91.57;37.35;;;3.00;76.20;;;;;;4849946;29;20050;-96
2023/12/01 08:30:22;;;;;;;94.90;36.87;;;3.00;76.20;;;;;;4849721;29;20061;-96
2023/12/01 08:32:53;;;;;;;88.30;35.60;;;3.00;76.20;;;;;;4850124;29;20056;-96
2023/12/01 08:35:21;;;;;;;84.43;36.45;;;3.00;76.20;;;;;;4849359;29;20049;-96
2023/12/01 08:37:51;;;;;;;86.38;36.00;;;3.00;76.40;;;;;;4848773;29;20058;-96
2023/12/01 08:40:18;;;;;;;92.50;38.13;;;3.10;76.20;;;;;;4849610;29;20402;-96
2023/12/01 08:42:52;;;;;;;108.73;46.53;;;3.20;75.90;;;;;;4850041;29;20045;-96
2023/12/01 08:45:20;;;;;;;115.70;49.13;;;3.20;75.90;;;;;;4850488;29;20053;-96
2023/12/01 08:47:47;;;;;;;127.40;51.30;;;3.20;75.90;;;;;;4850017;29;20182;-96
2023/12/01 08:50:17;;;;;;;123.55;49.90;;;3.20;76.20;;;;;;4850922;29;20126;-96
2023/12/01 08:52:45;;;;;;;135.13;51.15;;;3.20;76.00;;;;;;4850429;29;20513;-96
2023/12/01 08:55:12;;;;;;;156.73;57.67;;;3.40;75.70;;;;;;4850752;29;20512;-96
2023/12/01 08:57:40;;;;;;;147.13;58.00;;;3.40;75.30;;;;;;4850072;29;20128;-96
2023/12/01 09:00:08;;;;;;;149.15;55.65;;;3.50;75.10;;;;;;4848794;29;20139;-96
2023/12/01 09:02:36;;;;;;;138.20;55.90;;;3.60;74.80;;;;;;4850238;29;20056;-96
2023/12/01 09:05:04;;;;;;;129.15;54.33;;;3.80;74.50;;;;;;4864763;29;20056;-96
2023/12/01 09:07:31;;;;;;;161.93;62.17;;;3.80;74.10;;;;;;4849734;29;20412;-96
2023/12/01 09:09:59;;;;;;;165.80;60.90;;;3.80;74.10;;;;;;4848950;29;20109;-96
2023/12/01 09:12:27;;;;;;;166.20;62.25;;;3.80;73.90;;;;;;4849123;29;20050;-96
2023/12/01 09:14:54;;;;;;;154.68;60.40;;;3.90;73.90;;;;;;4848955;29;20050;-96
2023/12/01 09:17:22;;;;;;;158.15;61.17;;;3.90;73.70;;;;;;4848802;29;20045;-96
2023/12/01 09:19:50;;;;;;;155.97;58.13;;;3.90;73.30;;;;;;4849230;29;20049;-95
2023/12/01 09:22:17;;;;;;;156.05;57.85;;;3.60;73.80;;;;;;4848658;29;20050;-96
2023/12/01 09:24:45;;;;;;;152.02;59.45;;;3.50;74.40;;;;;;4848865;29;20049;-96
2023/12/01 09:27:13;;;;;;;148.88;54.53;;;3.60;74.50;;;;;;4848592;29;20056;-95
2023/12/01 09:29:40;;;;;;;124.90;48.20;;;3.50;74.60;;;;;;4848093;29;20077;-96
2023/12/01 09:32:08;;;;;;;122.53;47.03;;;3.50;74.50;;;;;;4847740;29;20055;-96
2023/12/01 09:34:35;;;;;;;127.05;50.03;;;3.60;74.40;;;;;;4847766;29;20081;-96
2023/12/01 09:37:05;;;;;;;129.73;47.35;;;3.60;74.40;;;;;;4847837;29;20057;-95
2023/12/01 09:39:32;;;;;;;120.25;47.50;;;3.50;74.50;;;;;;4847395;29;20050;-96
2023/12/01 09:42:05;;;;;;;129.45;47.67;;;3.40;75.10;;;;;;4847901;29;20045;-95
2023/12/01 09:44:34;;;;;;;121.93;48.20;;;3.40;75.30;;;;;;4847892;29;20046;-95
2023/12/01 09:47:03;;;;;;;129.25;48.83;;;3.50;75.10;;;;;;4862688;29;20072;-96
2023/12/01 09:49:33;;;;;;;123.60;48.40;;;3.50;74.90;;;;;;4847724;29;20473;-96
2023/12/01 09:52:02;;;;;;;140.93;51.47;;;3.60;75.10;;;;;;4847209;29;20469;-96
2023/12/01 09:54:32;;;;;;;139.95;52.78;;;3.70;75.00;;;;;;4847459;29;20072;-95
2023/12/01 09:57:06;;;;;;;138.13;49.53;;;3.60;75.10;;;;;;4846969;29;20049;-95
2023/12/01 09:59:35;;;;;;;130.95;48.88;;;3.70;75.30;;;;;;4847217;29;20045;-95
2023/12/01 10:02:03;;;;;;;144.15;54.78;;;3.80;75.10;;;;;;4847232;29;20049;-95
2023/12/01 10:04:32;;;;;;;132.88;52.15;;;3.80;75.00;;;;;;4847165;29;20050;-96
2023/12/01 10:07:00;;;;;;;144.73;56.67;;;3.70;75.10;;;;;;4846876;29;20045;-95
2023/12/01 10:09:32;;;;;;;150.70;57.43;;;3.60;75.40;;;;;;4846858;29;20050;-95
2023/12/01 10:12:10;;;;;;;152.70;57.60;;;3.50;75.50;;;;;;4846506;29;20061;-94
2023/12/01 10:14:38;;;;;;;152.40;58.97;;;3.40;76.20;;;;;;4847042;29;20149;-95
2023/12/01 10:17:09;;;;;;;145.75;57.92;;;3.30;76.70;;;;;;4846989;29;20105;-95
2023/12/01 10:19:47;;;;;;;155.88;60.97;;;3.30;76.80;;;;;;4847097;29;20045;-95
2023/12/01 10:22:24;;;;;;;154.20;57.60;;;3.40;76.60;;;;;;4832194;29;20496;-95
2023/12/01 10:25:03;;;;;;;149.98;58.08;;;3.40;76.50;;;;;;4847222;29;20094;-94
2023/12/01 10:27:31;;;;;;;154.48;59.08;;;3.50;76.20;;;;;;4847140;29;20065;-95
2023/12/01 10:30:28;;;;;;;143.05;57.63;;;3.50;76.40;;;;;;4847906;29;20108;-95
2023/12/01 10:32:55;;;;;;;157.90;61.85;;;3.60;76.20;;;;;;4831720;29;20057;-96
2023/12/01 10:35:22;;;;;;;163.67;63.93;;;3.70;75.80;;;;;;4846810;29;20562;-95
2023/12/01 10:37:49;;;;;;;160.90;61.78;;;3.70;75.70;;;;;;4846554;29;20052;-95
2023/12/01 10:40:17;;;;;;;158.55;61.75;;;3.50;75.90;;;;;;4846821;29;20041;-96
2023/12/01 10:42:47;;;;;;;142.15;60.80;;;3.70;76.30;;;;;;4846939;29;20061;-95
2023/12/01 10:45:15;;;;;;;141.35;58.63;;;3.70;75.90;;;;;;4846934;29;20041;-95
2023/12/01 10:47:45;;;;;;;139.47;52.03;;;3.80;75.90;;;;;;4846888;29;20516;-95
2023/12/01 10:50:16;;;;;;;139.23;57.40;;;3.80;75.30;;;;;;4846954;29;20085;-95
2023/12/01 10:52:45;;;;;;;161.52;62.45;;;3.70;75.50;;;;;;4846904;29;20092;-95
2023/12/01 10:55:13;;;;;;;162.48;62.67;;;3.70;75.50;;;;;;4846537;29;20057;-95
2023/12/01 10:57:43;;;;;;;143.98;57.17;;;3.60;75.60;;;;;;4846450;29;20049;-95
2023/12/01 11:00:29;;;;;;;151.73;58.33;;;3.50;75.90;;;;;;4846759;29;20508;-96
2023/12/01 11:03:06;;;;;;;140.43;55.70;;;3.50;76.00;;;;;;4846414;29;20102;-95
2023/12/01 11:05:36;;;;;;;140.95;54.97;;;3.60;75.80;;;;;;4846586;29;20543;-95
2023/12/01 11:08:38;;;;;;;146.30;60.28;;;3.80;75.50;;;;;;4846720;29;20144;-95
2023/12/01 11:11:08;;;;;;;145.23;55.55;;;3.70;75.10;;;;;;4808559;29;20058;-95
2023/12/01 11:14:04;;;;;;;135.13;54.67;;;3.60;75.50;;;;;;4846678;29;20153;-94
2023/12/01 11:16:33;;;;;;;130.00;49.40;;;3.60;75.20;;;;;;4846674;29;20534;-94
2023/12/01 11:19:00;;;;;;;123.63;50.95;;;3.40;75.30;;;;;;4846571;29;20122;-95
2023/12/01 11:21:29;;;;;;;127.57;52.22;;;3.50;75.90;;;;;;4846849;29;20053;-96
2023/12/01 11:24:24;;;;;;;143.75;54.55;;;3.50;75.70;;;;;;4848413;29;20091;-95
2023/12/01 11:26:52;;;;;;;131.17;50.80;;;3.50;75.90;;;;;;4850166;29;20144;-94
2023/12/01 11:29:29;;;;;;;136.80;55.50;;;3.50;75.80;;;;;;4850019;29;20050;-95
2023/12/01 11:31:59;;;;;;;150.40;56.17;;;3.50;76.00;;;;;;4849900;29;20432;-95
2023/12/01 11:34:26;;;;;;;157.05;56.92;;;3.40;76.00;;;;;;4850096;29;20057;-95
2023/12/01 11:36:54;;;;;;;137.15;54.72;;;3.40;76.10;;;;;;4849569;29;20059;-95
2023/12/01 11:39:29;;;;;;;142.43;54.23;;;3.40;76.40;;;;;;4850393;29;20052;-95
2023/12/01 11:41:57;;;;;;;157.07;59.45;;;3.40;76.20;;;;;;4850002;29;20053;-94
2023/12/01 11:44:34;;;;;;;148.48;60.53;;;3.40;76.00;;;;;;4849677;29;20056;-94
2023/12/01 11:47:04;;;;;;;152.45;58.05;;;3.30;76.30;;;;;;4850036;29;20505;-95
2023/12/01 11:49:43;;;;;;;158.25;60.17;;;3.10;76.10;;;;;;4850174;29;20056;-95
2023/12/01 11:52:18;;;;;;;157.73;59.20;;;2.90;77.00;;;;;;4850090;29;20053;-95
2023/12/01 11:54:50;;;;;;;176.25;66.30;;;2.70;77.70;;;;;;4849942;29;20428;-95
2023/12/01 11:57:18;;;;;;;179.80;63.03;;;2.70;78.20;;;;;;4849676;29;20092;-95
2023/12/01 11:59:47;;;;;;;160.45;63.88;;;2.70;78.40;;;;;;4849590;29;20050;-95
2023/12/01 12:02:15;;;;;;;172.57;67.03;;;2.60;78.70;;;;;;4849495;29;20076;-95
2023/12/01 12:04:49;;;;;;;152.23;60.90;;;2.70;78.70;;;;;;4849616;29;20050;-95
2023/12/01 12:07:16;;;;;;;159.50;64.50;;;2.80;78.90;;;;;;4849009;29;20148;-95
2023/12/01 12:09:44;;;;;;;155.32;58.95;;;2.90;78.40;;;;;;4849171;29;20056;-96
2023/12/01 12:12:13;;;;;;;156.20;63.45;;;2.90;78.20;;;;;;4849235;29;20526;-96
2023/12/01 12:14:43;;;;;;;167.02;65.20;;;3.00;77.90;;;;;;4849405;29;20045;-95
2023/12/01 12:17:10;;;;;;;160.57;65.03;;;3.00;77.50;;;;;;4849196;29;20523;-95
2023/12/01 12:19:43;;;;;;;181.63;70.57;;;3.00;77.50;;;;;;4848870;29;20501;-95
2023/12/01 12:22:19;;;;;;;179.27;69.95;;;3.00;77.60;;;;;;4850134;29;20045;-95
2023/12/01 12:24:48;;;;;;;182.50;73.53;;;2.90;77.80;;;;;;4849322;29;20054;-94
2023/12/01 12:27:15;;;;;;;166.00;66.13;;;2.90;77.60;;;;;;4848970;29;20413;-95
2023/12/01 12:29:44;;;;;;;184.33;69.97;;;2.90;78.00;;;;;;4849172;29;20457;-95
2023/12/01 12:32:11;;;;;;;179.77;70.95;;;2.80;78.00;;;;;;4848496;29;20054;-95
2023/12/01 12:34:41;;;;;;;179.93;70.18;;;2.90;78.10;;;;;;4848562;29;20053;-95
2023/12/01 12:37:12;;;;;;;178.07;72.40;;;2.90;77.90;;;;;;4848766;29;20414;-95
2023/12/01 12:39:39;;;;;;;175.75;71.95;;;3.00;77.50;;;;;;4848517;29;20053;-96
2023/12/01 12:42:15;;;;;;;178.17;71.23;;;3.00;77.70;;;;;;4849358;29;20389;-95